createdAt,value
2023-09-08T00:00:59.579Z,101656.28
2023-09-08T00:03:26.772Z,101652.78
2023-09-08T00:05:55.344Z,101653.72
2023-09-08T00:08:23.617Z,101652.88
2023-09-08T00:10:50.923Z,101647.59
2023-09-08T00:13:18.052Z,101645.88
2023-09-08T00:15:49.013Z,101647.81
2023-09-08T00:18:16.304Z,101653.28
2023-09-08T00:20:43.579Z,101649.75
2023-09-08T00:23:10.913Z,101650.69
2023-09-08T00:25:40.917Z,101641.84
2023-09-08T00:28:08.196Z,101639.22
2023-09-08T00:30:35.422Z,101648.19
2023-09-08T00:33:02.961Z,101647.44
2023-09-08T00:35:30.694Z,101641.09
2023-09-08T00:37:58.216Z,101645.47
2023-09-08T00:40:25.491Z,101642.09
2023-09-08T00:42:54.318Z,101642.88
2023-09-08T00:45:22.194Z,101641.91
2023-09-08T00:47:49.686Z,101642.00
2023-09-08T00:50:17.252Z,101637.56
2023-09-08T00:52:44.529Z,101647.38
2023-09-08T00:55:12.408Z,101634.97
2023-09-08T00:57:39.773Z,101640.59
2023-09-08T01:00:07.720Z,101636.84
2023-09-08T01:02:35.210Z,101637.84
2023-09-08T01:05:02.458Z,101643.09
2023-09-08T01:07:31.845Z,101632.53
2023-09-08T01:10:04.726Z,101632.56
2023-09-08T01:12:32.033Z,101628.25
2023-09-08T01:14:59.093Z,101630.78
2023-09-08T01:17:27.193Z,101623.75
2023-09-08T01:20:01.519Z,101626.41
2023-09-08T01:22:28.993Z,101623.88
2023-09-08T01:25:13.020Z,101617.72
2023-09-08T01:27:45.012Z,101622.09
2023-09-08T01:30:14.675Z,101618.59
2023-09-08T01:32:42.867Z,101618.69
2023-09-08T01:35:13.918Z,101617.81
2023-09-08T01:37:43.223Z,101609.81
2023-09-08T01:40:11.836Z,101610.72
2023-09-08T01:42:40.189Z,101608.25
2023-09-08T01:45:08.888Z,101610.94
2023-09-08T01:47:36.560Z,101616.38
2023-09-08T01:50:03.996Z,101607.47
2023-09-08T01:52:34.081Z,101606.84
2023-09-08T01:55:02.593Z,101610.41
2023-09-08T01:57:32.326Z,101607.78
2023-09-08T02:00:03.508Z,101600.78
2023-09-08T02:02:39.857Z,101605.31
2023-09-08T02:05:08.134Z,101604.66
2023-09-08T02:07:35.431Z,101616.47
2023-09-08T02:10:02.654Z,101618.09
2023-09-08T02:12:30.215Z,101604.13
2023-09-08T02:14:57.557Z,101610.31
2023-09-08T02:17:24.770Z,101612.28
2023-09-08T02:19:52.156Z,101614.13
2023-09-08T02:22:19.865Z,101621.94
2023-09-08T02:24:47.037Z,101621.91
2023-09-08T02:27:14.254Z,101620.97
2023-09-08T02:29:41.614Z,101621.88
2023-09-08T02:32:09.030Z,101618.28
2023-09-08T02:34:40.269Z,101614.94
2023-09-08T02:37:08.491Z,101615.00
2023-09-08T02:39:36.159Z,101623.06
2023-09-08T02:42:03.553Z,101615.75
2023-09-08T02:44:31.664Z,101621.13
2023-09-08T02:46:58.883Z,101625.56
2023-09-08T02:49:26.443Z,101627.44
2023-09-08T02:51:54.304Z,101632.72
2023-09-08T02:54:21.715Z,101628.41
2023-09-08T02:56:48.824Z,101636.44
2023-09-08T02:59:15.949Z,101646.00
2023-09-08T03:01:43.670Z,101644.38
2023-09-08T03:04:11.016Z,101639.16
2023-09-08T03:06:38.240Z,101641.75
2023-09-08T03:09:07.763Z,101638.19
2023-09-08T03:11:35.549Z,101637.28
2023-09-08T03:14:03.217Z,101633.78
2023-09-08T03:16:31.876Z,101633.78
2023-09-08T03:19:01.068Z,101635.56
2023-09-08T03:21:28.352Z,101633.75
2023-09-08T03:23:58.750Z,101637.31
2023-09-08T03:26:26.244Z,101637.28
2023-09-08T03:28:53.959Z,101636.44
2023-09-08T03:31:21.344Z,101638.19
2023-09-08T03:33:48.935Z,101639.94
2023-09-08T03:36:16.970Z,101630.34
2023-09-08T03:38:44.632Z,101633.88
2023-09-08T03:41:12.587Z,101640.13
2023-09-08T03:43:40.045Z,101634.88
2023-09-08T03:46:07.690Z,101634.97
2023-09-08T03:48:35.390Z,101637.56
2023-09-08T03:51:02.846Z,101634.94
2023-09-08T03:53:30.323Z,101637.66
2023-09-08T03:55:57.759Z,101632.31
2023-09-08T03:58:26.337Z,101634.09
2023-09-08T04:00:54.223Z,101639.41
2023-09-08T04:03:22.022Z,101641.31
2023-09-08T04:05:50.408Z,101636.91
2023-09-08T04:08:18.115Z,101639.41
2023-09-08T04:10:45.470Z,101642.19
2023-09-08T04:13:12.784Z,101636.03
2023-09-08T04:15:40.251Z,101649.31
2023-09-08T04:18:07.654Z,101647.59
2023-09-08T04:20:35.264Z,101645.72
2023-09-08T04:23:02.563Z,101649.34
2023-09-08T04:25:30.001Z,101643.16
2023-09-08T04:27:57.503Z,101642.31
2023-09-08T04:30:25.168Z,101637.09
2023-09-08T04:32:53.082Z,101642.28
2023-09-08T04:35:24.952Z,101638.91
2023-09-08T04:37:52.700Z,101638.75
2023-09-08T04:40:20.741Z,101631.84
2023-09-08T04:42:48.437Z,101630.88
2023-09-08T04:45:21.270Z,101626.63
2023-09-08T04:47:49.337Z,101630.16
2023-09-08T04:50:19.777Z,101631.97
2023-09-08T04:52:47.703Z,101638.13
2023-09-08T04:55:16.566Z,101635.53
2023-09-08T04:57:47.314Z,101635.50
2023-09-08T05:00:15.284Z,101635.56
2023-09-08T05:02:43.727Z,101637.28
2023-09-08T05:05:14.976Z,101640.81
2023-09-08T05:07:42.660Z,101642.56
2023-09-08T05:10:10.750Z,101652.50
2023-09-08T05:12:53.967Z,101643.50
2023-09-08T05:15:22.932Z,101649.75
2023-09-08T05:17:53.642Z,101647.06
2023-09-08T05:20:26.275Z,101648.13
2023-09-08T05:22:54.488Z,101647.00
2023-09-08T05:25:22.243Z,101654.16
2023-09-08T05:27:50.678Z,101655.94
2023-09-08T05:30:19.501Z,101656.00
2023-09-08T05:32:47.880Z,101656.81
2023-09-08T05:35:18.476Z,101657.63
2023-09-08T05:37:46.726Z,101656.69
2023-09-08T05:40:15.178Z,101662.06
2023-09-08T05:42:45.258Z,101665.53
2023-09-08T05:45:13.538Z,101655.81
2023-09-08T05:47:41.340Z,101661.13
2023-09-08T05:50:12.768Z,101661.13
2023-09-08T05:52:42.601Z,101668.28
2023-09-08T05:55:20.588Z,101667.31
2023-09-08T05:57:55.547Z,101664.72
2023-09-08T06:00:24.887Z,101675.16
2023-09-08T06:02:53.843Z,101671.66
2023-09-08T06:05:22.396Z,101672.63
2023-09-08T06:08:04.411Z,101678.91
2023-09-08T06:10:35.346Z,101676.31
2023-09-08T06:13:03.094Z,101679.72
2023-09-08T06:15:31.940Z,101676.22
2023-09-08T06:18:04.292Z,101675.22
2023-09-08T06:20:33.082Z,101677.88
2023-09-08T06:23:01.313Z,101681.28
2023-09-08T06:25:29.978Z,101675.88
2023-09-08T06:27:59.039Z,101681.09
2023-09-08T06:30:29.880Z,101686.38
2023-09-08T06:32:57.543Z,101684.72
2023-09-08T06:35:27.919Z,101687.38
2023-09-08T06:37:56.026Z,101681.91
2023-09-08T06:40:23.566Z,101683.88
2023-09-08T06:42:50.819Z,101680.91
2023-09-08T06:45:27.647Z,101691.47
2023-09-08T06:47:56.688Z,101689.63
2023-09-08T06:50:25.850Z,101698.38
2023-09-08T06:52:54.574Z,101695.59
2023-09-08T06:55:22.200Z,101696.50
2023-09-08T06:57:52.245Z,101692.91
2023-09-08T07:00:21.966Z,101694.69
2023-09-08T07:02:50.916Z,101694.97
2023-09-08T07:05:19.395Z,101697.59
2023-09-08T07:07:50.921Z,101702.56
2023-09-08T07:10:18.450Z,101698.03
2023-09-08T07:12:46.836Z,101700.75
2023-09-08T07:15:16.851Z,101704.06
2023-09-08T07:17:44.569Z,101712.13
2023-09-08T07:20:12.396Z,101711.13
2023-09-08T07:22:41.631Z,101703.06
2023-09-08T07:25:11.293Z,101706.53
2023-09-08T07:27:38.819Z,101703.72
2023-09-08T07:30:07.763Z,101700.09
2023-09-08T07:32:35.955Z,101695.81
2023-09-08T07:35:03.667Z,101702.94
2023-09-08T07:37:31.323Z,101709.88
2023-09-08T07:39:59.394Z,101706.19
2023-09-08T07:42:27.727Z,101713.28
2023-09-08T07:44:55.341Z,101707.75
2023-09-08T07:47:23.903Z,101706.19
2023-09-08T07:49:51.290Z,101716.69
2023-09-08T07:52:19.157Z,101721.72
2023-09-08T07:54:46.840Z,101712.88
2023-09-08T07:57:14.357Z,101714.53
2023-09-08T07:59:43.222Z,101708.47
2023-09-08T08:02:12.890Z,101709.69
2023-09-08T08:04:40.822Z,101706.00
2023-09-08T08:07:08.728Z,101706.56
2023-09-08T08:09:36.847Z,101710.78
2023-09-08T08:12:05.587Z,101708.56
2023-09-08T08:14:33.746Z,101710.75
2023-09-08T08:17:03.794Z,101708.72
2023-09-08T08:19:34.792Z,101700.91
2023-09-08T08:22:05.046Z,101701.97
2023-09-08T08:24:33.334Z,101709.00
2023-09-08T08:27:04.821Z,101710.09
2023-09-08T08:29:39.840Z,101717.38
2023-09-08T08:32:08.010Z,101714.72
2023-09-08T08:34:38.886Z,101722.72
2023-09-08T08:37:07.220Z,101722.88
2023-09-08T08:39:36.516Z,101712.00
2023-09-08T08:42:20.617Z,101715.69
2023-09-08T08:44:57.651Z,101713.69
2023-09-08T08:47:40.371Z,101718.50
2023-09-08T08:50:12.556Z,101717.16
2023-09-08T08:52:41.308Z,101722.03
2023-09-08T08:55:17.410Z,101721.94
2023-09-08T08:57:54.949Z,101716.19
2023-09-08T09:00:27.427Z,101715.00
2023-09-08T09:03:11.758Z,101716.72
2023-09-08T09:05:48.862Z,101720.09
2023-09-08T09:08:19.852Z,101712.59
2023-09-08T09:10:48.313Z,101711.75
2023-09-08T09:13:16.009Z,101711.47
2023-09-08T09:15:49.065Z,101711.41
2023-09-08T09:18:17.423Z,101710.31
2023-09-08T09:21:00.949Z,101713.22
2023-09-08T09:23:38.142Z,101712.28
2023-09-08T09:26:06.361Z,101710.84
2023-09-08T09:28:34.719Z,101707.00
2023-09-08T09:31:03.664Z,101711.78
2023-09-08T09:33:38.105Z,101707.50
2023-09-08T09:36:08.971Z,101707.78
2023-09-08T09:38:37.304Z,101701.91
2023-09-08T09:41:06.048Z,101706.28
2023-09-08T09:43:35.584Z,101704.94
2023-09-08T09:46:03.661Z,101705.59
2023-09-08T09:48:35.551Z,101700.06
2023-09-08T09:51:21.351Z,101702.47
2023-09-08T09:53:52.620Z,101702.31
2023-09-08T09:56:22.058Z,101705.31
2023-09-08T09:58:52.450Z,101699.13
2023-09-08T10:01:20.993Z,101706.44
2023-09-08T10:03:50.379Z,101701.09
2023-09-08T10:06:21.824Z,101703.97
2023-09-08T10:08:50.238Z,101701.44
2023-09-08T10:11:22.922Z,101708.09
2023-09-08T10:13:58.910Z,101707.16
2023-09-08T10:16:32.421Z,101695.81
2023-09-08T10:19:01.324Z,101707.66
2023-09-08T10:21:32.109Z,101704.28
2023-09-08T10:24:10.691Z,101700.84
2023-09-08T10:26:51.170Z,101700.47
2023-09-08T10:29:22.830Z,101703.69
2023-09-08T10:31:51.250Z,101698.31
2023-09-08T10:34:22.983Z,101703.28
2023-09-08T10:36:50.561Z,101698.72
2023-09-08T10:39:47.013Z,101698.47
2023-09-08T10:42:22.784Z,101698.41
2023-09-08T10:44:52.868Z,101699.66
2023-09-08T10:47:28.226Z,101699.25
2023-09-08T10:50:01.646Z,101694.91
2023-09-08T10:52:29.278Z,101696.72
2023-09-08T10:54:59.656Z,101689.13
2023-09-08T10:57:27.142Z,101690.25
2023-09-08T11:00:02.132Z,101693.06
2023-09-08T11:02:57.837Z,101683.28
2023-09-08T11:05:25.403Z,101681.75
2023-09-08T11:07:55.820Z,101686.25
2023-09-08T11:10:24.818Z,101682.69
2023-09-08T11:12:52.964Z,101686.44
2023-09-08T11:15:24.032Z,101685.97
2023-09-08T11:17:53.933Z,101683.50
2023-09-08T11:20:29.130Z,101676.78
2023-09-08T11:23:03.969Z,101678.84
2023-09-08T11:25:31.533Z,101680.66
2023-09-08T11:28:00.885Z,101670.56
2023-09-08T11:30:29.357Z,101675.50
2023-09-08T11:33:00.212Z,101669.69
2023-09-08T11:35:28.757Z,101668.69
2023-09-08T11:38:03.119Z,101671.00
2023-09-08T11:40:37.024Z,101666.56
2023-09-08T11:43:07.031Z,101660.94
2023-09-08T11:45:42.129Z,101668.81
2023-09-08T11:48:11.719Z,101660.44
2023-09-08T11:50:39.034Z,101661.47
2023-09-08T11:53:11.868Z,101660.00
2023-09-08T11:55:39.769Z,101658.53
2023-09-08T11:58:07.458Z,101659.97
2023-09-08T12:00:36.027Z,101651.66
2023-09-08T12:03:14.414Z,101652.59
2023-09-08T12:05:43.583Z,101656.50
2023-09-08T12:08:11.181Z,101650.63
2023-09-08T12:10:57.519Z,101650.13
2023-09-08T12:13:27.697Z,101654.72
2023-09-08T12:15:55.045Z,101645.16
2023-09-08T12:18:40.311Z,101649.00
2023-09-08T12:21:08.003Z,101637.28
2023-09-08T12:23:56.407Z,101641.22
2023-09-08T12:26:28.337Z,101641.59
2023-09-08T12:28:55.629Z,101631.72
2023-09-08T12:31:27.085Z,101633.31
2023-09-08T12:33:54.606Z,101637.16
2023-09-08T12:36:22.101Z,101633.16
2023-09-08T12:38:51.798Z,101629.31
2023-09-08T12:41:21.746Z,101634.44
2023-09-08T12:43:55.281Z,101646.72
2023-09-08T12:46:24.389Z,101636.94
2023-09-08T12:48:57.913Z,101633.63
2023-09-08T12:51:25.529Z,101628.03
2023-09-08T12:53:55.874Z,101625.09
2023-09-08T12:56:26.214Z,101623.88
2023-09-08T12:58:56.577Z,101613.59
2023-09-08T13:01:25.729Z,101621.63
2023-09-08T13:04:01.243Z,101625.19
2023-09-08T13:06:31.665Z,101630.31
2023-09-08T13:09:06.449Z,101624.97
2023-09-08T13:11:34.093Z,101616.91
2023-09-08T13:14:06.658Z,101616.16
2023-09-08T13:16:35.348Z,101627.69
2023-09-08T13:19:05.083Z,101622.50
2023-09-08T13:21:38.863Z,101618.47
2023-09-08T13:24:09.390Z,101622.91
2023-09-08T13:26:39.312Z,101611.78
2023-09-08T13:29:21.449Z,101606.22
2023-09-08T13:32:03.958Z,101606.31
2023-09-08T13:34:40.205Z,101603.63
2023-09-08T13:37:12.126Z,101611.25
2023-09-08T13:39:45.442Z,101610.84
2023-09-08T13:42:30.142Z,101600.53
2023-09-08T13:45:04.895Z,101594.19
2023-09-08T13:47:56.842Z,101588.25
2023-09-08T13:50:27.259Z,101597.84
2023-09-08T13:53:04.417Z,101587.69
2023-09-08T13:55:43.924Z,101585.81
2023-09-08T13:58:15.374Z,101582.31
2023-09-08T14:00:46.774Z,101587.19
2023-09-08T14:05:55.111Z,101595.38
2023-09-08T14:08:51.909Z,101587.66
2023-09-08T14:11:42.466Z,101584.78
2023-09-08T14:14:20.433Z,101590.13
2023-09-08T14:16:49.249Z,101589.13
2023-09-08T14:19:16.757Z,101579.44
2023-09-08T14:21:49.261Z,101581.06
2023-09-08T14:24:35.601Z,101582.34
2023-09-08T14:27:07.258Z,101577.47
2023-09-08T14:29:40.147Z,101576.81
2023-09-08T14:32:10.816Z,101578.78
2023-09-08T14:34:41.057Z,101575.69
2023-09-08T14:37:13.296Z,101577.97
2023-09-08T14:39:41.437Z,101572.84
2023-09-08T14:42:09.956Z,101573.41
2023-09-08T14:44:39.737Z,101567.66
2023-09-08T14:47:07.375Z,101576.63
2023-09-08T14:49:41.514Z,101576.75
2023-09-08T14:52:13.862Z,101564.03
2023-09-08T14:54:48.130Z,101560.25
2023-09-08T14:57:16.028Z,101562.06
2023-09-08T14:59:43.717Z,101568.34
2023-09-08T15:02:28.058Z,101567.41
2023-09-08T15:05:07.917Z,101562.56
2023-09-08T15:07:45.044Z,101563.91
2023-09-08T15:10:21.879Z,101552.00
2023-09-08T15:12:52.144Z,101561.94
2023-09-08T15:15:25.174Z,101558.06
2023-09-08T15:18:04.616Z,101554.03
2023-09-08T15:20:34.730Z,101551.44
2023-09-08T15:23:11.992Z,101545.66
2023-09-08T15:25:42.462Z,101552.22
2023-09-08T15:28:19.868Z,101546.44
2023-09-08T15:30:57.354Z,101550.72
2023-09-08T15:33:29.753Z,101563.44
2023-09-08T15:35:59.928Z,101557.22
2023-09-08T15:38:35.707Z,101549.69
2023-09-08T15:41:12.722Z,101549.44
2023-09-08T15:43:46.513Z,101543.53
2023-09-08T15:46:14.663Z,101555.13
2023-09-08T15:48:45.465Z,101550.69
2023-09-08T15:51:14.364Z,101547.88
2023-09-08T15:53:45.706Z,101545.56
2023-09-08T15:56:15.025Z,101541.31
2023-09-08T15:58:48.653Z,101550.69
2023-09-08T16:01:20.109Z,101543.41
2023-09-08T16:03:53.475Z,101546.66
2023-09-08T16:06:21.082Z,101545.31
2023-09-08T16:08:51.635Z,101550.19
2023-09-08T16:11:19.193Z,101556.75
2023-09-08T16:13:48.058Z,101553.03
2023-09-08T16:16:27.152Z,101559.28
2023-09-08T16:19:00.412Z,101558.94
2023-09-08T16:21:28.073Z,101568.06
2023-09-08T16:24:02.497Z,101556.59
2023-09-08T16:26:30.297Z,101567.09
2023-09-08T16:29:00.495Z,101560.63
2023-09-08T16:31:28.666Z,101563.34
2023-09-08T16:33:56.082Z,101567.00
2023-09-08T16:36:24.791Z,101562.91
2023-09-08T16:38:52.071Z,101558.38
2023-09-08T16:41:19.483Z,101557.31
2023-09-08T16:43:50.586Z,101561.53
2023-09-08T16:46:18.673Z,101563.72
2023-09-08T16:48:46.363Z,101554.66
2023-09-08T16:51:18.732Z,101568.81
2023-09-08T16:53:46.332Z,101567.72
2023-09-08T16:56:13.844Z,101563.03
2023-09-08T16:58:41.253Z,101557.31
2023-09-08T17:01:08.726Z,101566.84
2023-09-08T17:03:36.355Z,101567.66
2023-09-08T17:06:04.207Z,101568.69
2023-09-08T17:08:31.779Z,101557.72
2023-09-08T17:11:09.344Z,101558.91
2023-09-08T17:13:37.320Z,101557.88
2023-09-08T17:16:05.274Z,101560.47
2023-09-08T17:18:33.252Z,101554.13
2023-09-08T17:21:01.909Z,101556.78
2023-09-08T17:23:32.664Z,101562.06
2023-09-08T17:26:07.746Z,101562.84
2023-09-08T17:28:37.685Z,101558.31
2023-09-08T17:31:12.598Z,101550.69
2023-09-08T17:33:48.221Z,101548.22
2023-09-08T17:36:18.576Z,101551.31
2023-09-08T17:38:46.508Z,101547.66
2023-09-08T17:41:16.143Z,101548.81
2023-09-08T17:43:44.465Z,101547.25
2023-09-08T17:46:14.215Z,101554.03
2023-09-08T17:48:45.206Z,101556.03
2023-09-08T17:51:18.344Z,101550.47
2023-09-08T17:53:50.804Z,101546.19
2023-09-08T17:56:23.577Z,101551.66
2023-09-08T17:58:58.698Z,101553.06
2023-09-08T18:01:31.559Z,101547.00
2023-09-08T18:04:01.133Z,101549.47
2023-09-08T18:06:29.829Z,101549.97
2023-09-08T18:08:58.774Z,101552.19
2023-09-08T18:11:32.622Z,101550.56
2023-09-08T18:14:02.080Z,101556.06
2023-09-08T18:16:36.844Z,101552.91
2023-09-08T18:19:06.144Z,101554.03
2023-09-08T18:21:36.710Z,101558.69
2023-09-08T18:24:05.274Z,101553.16
2023-09-08T18:26:38.967Z,101554.59
2023-09-08T18:29:17.371Z,101552.50
2023-09-08T18:31:45.518Z,101558.63
2023-09-08T18:34:17.503Z,101562.69
2023-09-08T18:36:46.201Z,101571.13
2023-09-08T18:39:17.463Z,101569.00
2023-09-08T18:41:48.086Z,101580.28
2023-09-08T18:44:17.411Z,101575.53
2023-09-08T18:46:46.179Z,101586.38
2023-09-08T18:49:14.776Z,101580.47
2023-09-08T18:51:42.631Z,101583.13
2023-09-08T18:54:14.139Z,101592.28
2023-09-08T18:56:42.935Z,101588.53
2023-09-08T18:59:11.150Z,101587.69
2023-09-08T19:01:39.612Z,101593.53
2023-09-08T19:04:09.763Z,101596.47
2023-09-08T19:06:40.870Z,101592.44
2023-09-08T19:09:09.974Z,101595.81
2023-09-08T19:11:37.906Z,101596.31
2023-09-08T19:14:07.522Z,101597.19
2023-09-08T19:16:39.394Z,101603.66
2023-09-08T19:19:07.235Z,101594.47
2023-09-08T19:21:39.577Z,101594.41
2023-09-08T19:24:07.665Z,101607.84
2023-09-08T19:26:37.333Z,101608.25
2023-09-08T19:29:09.727Z,101608.94
2023-09-08T19:31:38.183Z,101603.44
2023-09-08T19:34:11.405Z,101609.78
2023-09-08T19:36:42.959Z,101614.03
2023-09-08T19:39:10.833Z,101615.56
2023-09-08T19:41:41.097Z,101617.94
2023-09-08T19:44:12.577Z,101615.56
2023-09-08T19:46:42.256Z,101613.44
2023-09-08T19:49:11.713Z,101619.78
2023-09-08T19:51:42.380Z,101618.72
2023-09-08T19:54:13.757Z,101609.84
2023-09-08T19:56:42.069Z,101610.41
2023-09-08T19:59:11.963Z,101627.25
2023-09-08T20:01:44.792Z,101620.00
2023-09-08T20:04:17.659Z,101621.78
2023-09-08T20:06:50.044Z,101620.34
2023-09-08T20:09:19.544Z,101613.25
2023-09-08T20:11:48.566Z,101617.38
2023-09-08T20:14:20.894Z,101614.66
2023-09-08T20:16:53.592Z,101621.88
2023-09-08T20:19:22.163Z,101622.59
2023-09-08T20:21:53.711Z,101627.00
2023-09-08T20:24:21.187Z,101631.34
2023-09-08T20:26:54.074Z,101633.88
2023-09-08T20:29:21.704Z,101635.03
2023-09-08T20:31:50.541Z,101629.81
2023-09-08T20:34:18.063Z,101634.94
2023-09-08T20:36:45.950Z,101630.56
2023-09-08T20:39:14.073Z,101628.91
2023-09-08T20:41:47.614Z,101628.91
2023-09-08T20:44:18.340Z,101635.91
2023-09-08T20:46:47.905Z,101633.97
2023-09-08T20:49:15.197Z,101631.66
2023-09-08T20:51:42.592Z,101622.00
2023-09-08T20:54:09.992Z,101627.34
2023-09-08T20:56:37.567Z,101625.50
2023-09-08T20:59:06.128Z,101630.25
2023-09-08T21:01:33.721Z,101626.53
2023-09-08T21:04:01.600Z,101623.09
2023-09-08T21:06:30.265Z,101620.16
2023-09-08T21:08:57.581Z,101616.44
2023-09-08T21:11:25.868Z,101617.41
2023-09-08T21:13:53.543Z,101620.28
2023-09-08T21:16:21.079Z,101616.94
2023-09-08T21:18:51.808Z,101616.06
2023-09-08T21:21:19.546Z,101619.88
2023-09-08T21:23:46.905Z,101622.53
2023-09-08T21:26:20.452Z,101619.03
2023-09-08T21:28:48.619Z,101626.94
2023-09-08T21:31:19.850Z,101621.47
2023-09-08T21:33:50.681Z,101619.81
2023-09-08T21:36:19.520Z,101620.75
2023-09-08T21:38:46.847Z,101615.41
2023-09-08T21:41:14.835Z,101615.41
2023-09-08T21:43:42.241Z,101616.28
2023-09-08T21:46:11.170Z,101618.03
2023-09-08T21:48:40.190Z,101612.13
2023-09-08T21:51:07.941Z,101609.28
2023-09-08T21:53:35.197Z,101616.25
2023-09-08T21:56:02.463Z,101620.78
2023-09-08T21:58:30.153Z,101614.69
2023-09-08T22:00:57.545Z,101615.84
2023-09-08T22:03:24.976Z,101607.66
2023-09-08T22:05:52.660Z,101611.97
2023-09-08T22:08:20.054Z,101616.59
2023-09-08T22:10:47.725Z,101618.41
2023-09-08T22:13:14.933Z,101619.38
2023-09-08T22:15:42.294Z,101613.03
2023-09-08T22:18:11.160Z,101614.72
2023-09-08T22:20:38.926Z,101615.00
2023-09-08T22:23:06.117Z,101607.72
2023-09-08T22:25:35.233Z,101616.66
2023-09-08T22:28:02.733Z,101606.00
2023-09-08T22:30:30.273Z,101608.94
2023-09-08T22:32:57.830Z,101604.50
2023-09-08T22:35:25.139Z,101606.28
2023-09-08T22:37:52.935Z,101609.00
2023-09-08T22:40:20.497Z,101605.41
2023-09-08T22:42:47.867Z,101599.56
2023-09-08T22:45:15.213Z,101600.41
2023-09-08T22:47:42.748Z,101593.44
2023-09-08T22:50:13.577Z,101589.22
2023-09-08T22:52:44.141Z,101588.19
2023-09-08T22:55:23.430Z,101586.63
2023-09-08T22:57:52.133Z,101582.50
2023-09-08T23:00:19.485Z,101578.03
2023-09-08T23:02:48.309Z,101579.91
2023-09-08T23:05:16.020Z,101587.03
2023-09-08T23:07:46.782Z,101592.50
2023-09-08T23:10:14.268Z,101587.47
2023-09-08T23:12:42.002Z,101583.00
2023-09-08T23:15:11.304Z,101588.56
2023-09-08T23:17:39.248Z,101587.59
2023-09-08T23:20:16.951Z,101588.31
2023-09-08T23:22:45.288Z,101591.97
2023-09-08T23:25:12.762Z,101584.81
2023-09-08T23:27:39.993Z,101594.47
2023-09-08T23:30:08.055Z,101590.81
2023-09-08T23:32:35.442Z,101592.53
2023-09-08T23:35:05.176Z,101592.50
2023-09-08T23:37:36.512Z,101597.78
2023-09-08T23:40:06.292Z,101584.16
2023-09-08T23:42:33.728Z,101591.09
2023-09-08T23:45:01.021Z,101594.84
2023-09-08T23:47:28.422Z,101589.69
2023-09-08T23:49:55.750Z,101585.84
2023-09-08T23:52:22.886Z,101589.38
2023-09-08T23:54:50.249Z,101596.56
2023-09-08T23:57:17.504Z,101598.44
2023-09-08T23:59:45.346Z,101597.03
